createdAt,value
2019-03-11T00:02:10.171Z,100455.64
2019-03-11T00:05:00.382Z,100455.00
2019-03-11T00:07:50.649Z,100452.31
2019-03-11T00:10:40.986Z,100439.94
2019-03-11T00:13:31.078Z,100438.33
2019-03-11T00:16:21.374Z,100435.15
2019-03-11T00:19:11.556Z,100431.23
2019-03-11T00:22:01.929Z,100430.13
2019-03-11T00:24:52.268Z,100440.21
2019-03-11T00:27:42.635Z,100439.94
2019-03-11T00:30:32.897Z,100446.55
2019-03-11T00:33:23.179Z,100445.03
2019-03-11T00:36:13.418Z,100447.64
2019-03-11T00:39:04.115Z,100444.31
2019-03-11T00:41:55.571Z,100444.64
2019-03-11T00:44:45.849Z,100435.52
2019-03-11T00:47:36.886Z,100436.70
2019-03-11T00:50:27.363Z,100435.98
2019-03-11T00:53:17.705Z,100416.59
2019-03-11T00:56:08.164Z,100414.77
2019-03-11T00:58:58.512Z,100401.60
2019-03-11T01:01:49.016Z,100405.98
2019-03-11T01:04:39.270Z,100394.58
2019-03-11T01:07:32.112Z,100393.37
2019-03-11T01:10:22.444Z,100389.82
2019-03-11T01:13:12.426Z,100395.50
2019-03-11T01:16:03.754Z,100401.78
2019-03-11T01:18:53.837Z,100396.27
2019-03-11T01:21:43.842Z,100399.73
2019-03-11T01:24:33.920Z,100387.47
2019-03-11T01:27:25.765Z,100383.78
2019-03-11T01:30:17.023Z,100375.08
2019-03-11T01:33:07.365Z,100381.46
2019-03-11T01:35:57.766Z,100379.48
2019-03-11T01:38:48.210Z,100386.89
2019-03-11T01:41:38.605Z,100370.41
2019-03-11T01:44:28.910Z,100366.28
2019-03-11T01:47:19.217Z,100365.17
2019-03-11T01:50:09.819Z,100369.64
2019-03-11T01:52:59.949Z,100363.33
2019-03-11T01:55:50.093Z,100373.03
2019-03-11T01:58:40.333Z,100372.31
2019-03-11T02:01:30.498Z,100374.78
2019-03-11T02:04:21.076Z,100373.92
2019-03-11T02:07:11.525Z,100371.61
2019-03-11T02:10:01.753Z,100374.12
2019-03-11T02:12:51.963Z,100367.00
2019-03-11T02:15:42.218Z,100357.69
2019-03-11T02:18:32.439Z,100359.33
2019-03-11T02:21:22.746Z,100358.70
2019-03-11T02:24:13.037Z,100365.13
2019-03-11T02:27:03.943Z,100370.03
2019-03-11T02:29:54.181Z,100357.88
2019-03-11T02:32:44.738Z,100360.77
2019-03-11T02:35:35.029Z,100358.02
2019-03-11T02:38:25.115Z,100360.77
2019-03-11T02:41:15.430Z,100356.59
2019-03-11T02:44:06.373Z,100355.19
2019-03-11T02:46:56.507Z,100357.17
2019-03-11T02:49:46.724Z,100360.43
2019-03-11T02:52:36.936Z,100356.11
2019-03-11T02:55:27.031Z,100363.60
2019-03-11T02:58:17.357Z,100362.97
2019-03-11T03:01:27.052Z,100367.73
2019-03-11T03:04:21.466Z,100364.08
2019-03-11T03:07:11.832Z,100351.41
2019-03-11T03:10:01.842Z,100368.59
2019-03-11T03:12:52.123Z,100369.84
2019-03-11T03:15:42.564Z,100372.33
2019-03-11T03:18:32.979Z,100364.27
2019-03-11T03:21:23.356Z,100364.65
2019-03-11T03:24:13.640Z,100360.62
2019-03-11T03:27:03.787Z,100368.68
2019-03-11T03:29:54.240Z,100372.48
2019-03-11T03:32:44.478Z,100367.28
2019-03-11T03:35:35.205Z,100374.72
2019-03-11T03:38:30.983Z,100373.66
2019-03-11T03:41:17.156Z,100374.38
2019-03-11T03:44:07.558Z,100369.48
2019-03-11T03:46:58.065Z,100370.88
2019-03-11T03:49:48.650Z,100376.04
2019-03-11T03:52:38.912Z,100370.29
2019-03-11T03:55:28.856Z,100369.56
2019-03-11T03:58:21.902Z,100363.95
2019-03-11T04:01:11.880Z,100357.41
2019-03-11T04:04:02.136Z,100358.48
2019-03-11T04:06:52.435Z,100346.95
2019-03-11T04:09:42.547Z,100349.37
2019-03-11T04:12:32.946Z,100345.70
2019-03-11T04:15:23.126Z,100348.86
2019-03-11T04:18:13.235Z,100352.26
2019-03-11T04:21:03.675Z,100360.75
2019-03-11T04:23:54.137Z,100351.42
2019-03-11T04:26:44.404Z,100354.11
2019-03-11T04:29:35.744Z,100350.70
2019-03-11T04:32:26.088Z,100354.95
2019-03-11T04:35:16.076Z,100355.64
2019-03-11T04:38:06.085Z,100361.84
2019-03-11T04:40:55.986Z,100363.45
2019-03-11T04:43:47.117Z,100360.34
2019-03-11T04:46:37.211Z,100363.27
2019-03-11T04:49:27.580Z,100365.96
2019-03-11T04:52:17.775Z,100366.00
2019-03-11T04:55:13.158Z,100350.44
2019-03-11T04:58:04.400Z,100356.98
2019-03-11T05:00:54.727Z,100356.61
2019-03-11T05:03:46.336Z,100350.62
2019-03-11T05:06:37.911Z,100355.64
2019-03-11T05:09:28.407Z,100356.69
2019-03-11T05:12:18.530Z,100353.91
2019-03-11T05:15:08.876Z,100365.06
2019-03-11T05:17:59.003Z,100370.42
2019-03-11T05:20:49.303Z,100380.10
2019-03-11T05:23:39.379Z,100388.38
2019-03-11T05:26:29.912Z,100390.63
2019-03-11T05:29:20.052Z,100398.36
2019-03-11T05:32:10.392Z,100394.02
2019-03-11T05:35:00.702Z,100390.06
2019-03-11T05:37:51.020Z,100385.63
2019-03-11T05:40:41.550Z,100381.28
2019-03-11T05:43:31.753Z,100381.28
2019-03-11T05:46:22.030Z,100383.19
2019-03-11T05:49:12.004Z,100381.29
2019-03-11T05:52:02.335Z,100385.09
2019-03-11T05:54:52.555Z,100388.20
2019-03-11T05:57:42.897Z,100387.50
2019-03-11T06:00:33.584Z,100387.62
2019-03-11T06:03:23.682Z,100393.53
2019-03-11T06:06:14.689Z,100399.41
2019-03-11T06:09:06.620Z,100394.60
2019-03-11T06:11:57.327Z,100408.16
2019-03-11T06:14:48.150Z,100401.20
2019-03-11T06:17:39.078Z,100405.19
2019-03-11T06:20:44.388Z,100408.64
2019-03-11T06:23:35.074Z,100414.24
2019-03-11T06:26:25.869Z,100409.53
2019-03-11T06:29:16.720Z,100407.91
2019-03-11T06:32:07.768Z,100412.84
2019-03-11T06:34:58.575Z,100415.39
2019-03-11T06:37:49.942Z,100411.78
2019-03-11T06:40:40.872Z,100423.28
2019-03-11T06:43:31.932Z,100433.81
2019-03-11T06:46:22.762Z,100427.72
2019-03-11T06:49:13.920Z,100428.88
2019-03-11T06:52:04.850Z,100437.81
2019-03-11T06:54:55.773Z,100429.00
2019-03-11T06:57:46.575Z,100427.52
2019-03-11T07:00:37.568Z,100430.16
2019-03-11T07:03:28.467Z,100435.95
2019-03-11T07:06:19.705Z,100431.22
2019-03-11T07:09:10.453Z,100435.24
2019-03-11T07:12:01.076Z,100438.28
2019-03-11T07:14:51.765Z,100443.14
2019-03-11T07:17:42.796Z,100448.97
2019-03-11T07:20:33.577Z,100443.26
2019-03-11T07:23:24.254Z,100445.48
2019-03-11T07:26:15.089Z,100445.48
2019-03-11T07:29:06.348Z,100448.18
2019-03-11T07:31:56.919Z,100447.67
2019-03-11T07:34:47.561Z,100451.76
2019-03-11T07:37:38.257Z,100452.25
2019-03-11T07:40:30.462Z,100444.95
2019-03-11T07:43:21.155Z,100448.59
2019-03-11T07:46:11.746Z,100452.29
2019-03-11T07:49:02.392Z,100447.03
2019-03-11T07:51:52.990Z,100449.80
2019-03-11T07:54:43.648Z,100444.61
2019-03-11T07:57:34.337Z,100447.81
2019-03-11T08:00:24.989Z,100443.75
2019-03-11T08:03:15.932Z,100446.03
2019-03-11T08:06:06.177Z,100437.99
2019-03-11T08:08:56.656Z,100439.12
2019-03-11T08:11:47.319Z,100431.62
2019-03-11T08:14:37.790Z,100430.64
2019-03-11T08:17:28.192Z,100432.15
2019-03-11T08:20:20.853Z,100426.07
2019-03-11T08:23:11.495Z,100421.84
2019-03-11T08:26:02.822Z,100411.48
2019-03-11T08:28:53.065Z,100407.42
2019-03-11T08:31:43.695Z,100399.63
2019-03-11T08:34:34.437Z,100403.23
2019-03-11T08:37:26.107Z,100403.23
2019-03-11T08:40:16.933Z,100406.20
2019-03-11T08:43:07.837Z,100398.00
2019-03-11T08:45:58.626Z,100397.48
2019-03-11T08:48:49.558Z,100394.22
2019-03-11T08:51:40.414Z,100388.43
2019-03-11T08:54:35.098Z,100382.61
2019-03-11T08:57:27.356Z,100382.27
2019-03-11T09:00:18.159Z,100380.18
2019-03-11T09:03:09.056Z,100384.62
2019-03-11T09:05:59.948Z,100378.40
2019-03-11T09:08:50.756Z,100380.13
2019-03-11T09:11:41.709Z,100372.15
2019-03-11T09:14:32.725Z,100368.98
2019-03-11T09:17:23.826Z,100360.69
2019-03-11T09:20:15.026Z,100353.48
2019-03-11T09:23:05.647Z,100358.42
2019-03-11T09:25:56.432Z,100346.55
2019-03-11T09:28:47.683Z,100339.61
2019-03-11T09:31:38.197Z,100340.56
2019-03-11T09:34:29.269Z,100334.81
2019-03-11T09:37:20.062Z,100332.09
2019-03-11T09:40:12.705Z,100324.58
2019-03-11T09:43:03.246Z,100330.66
2019-03-11T09:45:54.223Z,100326.22
2019-03-11T09:48:45.101Z,100329.25
2019-03-11T09:51:36.000Z,100329.31
2019-03-11T09:54:26.888Z,100328.80
2019-03-11T09:57:17.047Z,100333.47
2019-03-11T10:00:19.443Z,100335.78
2019-03-11T10:03:09.635Z,100331.10
2019-03-11T10:05:59.671Z,100325.74
2019-03-11T10:08:49.864Z,100324.97
2019-03-11T10:11:39.892Z,100322.02
2019-03-11T10:14:30.043Z,100328.72
2019-03-11T10:17:20.137Z,100319.84
2019-03-11T10:20:10.977Z,100323.62
2019-03-11T10:23:02.421Z,100321.14
2019-03-11T10:25:52.608Z,100307.23
2019-03-11T10:28:43.046Z,100295.50
2019-03-11T10:31:33.242Z,100296.77
2019-03-11T10:34:23.503Z,100289.88
2019-03-11T10:37:13.590Z,100282.88
2019-03-11T10:40:04.993Z,100277.47
2019-03-11T10:42:55.136Z,100265.84
2019-03-11T10:45:45.612Z,100264.76
2019-03-11T10:48:37.470Z,100257.59
2019-03-11T10:51:27.707Z,100253.83
2019-03-11T10:54:20.808Z,100251.17
2019-03-11T10:57:11.051Z,100245.02
2019-03-11T11:00:02.375Z,100239.53
2019-03-11T11:02:52.715Z,100235.95
2019-03-11T11:05:43.241Z,100225.94
2019-03-11T11:08:34.713Z,100226.86
2019-03-11T11:11:24.834Z,100214.91
2019-03-11T11:14:15.113Z,100209.19
2019-03-11T11:17:05.738Z,100201.41
2019-03-11T11:20:03.099Z,100196.16
2019-03-11T11:22:48.113Z,100195.25
2019-03-11T11:25:38.124Z,100189.63
2019-03-11T11:28:28.395Z,100183.70
2019-03-11T11:31:18.688Z,100177.86
2019-03-11T11:34:09.409Z,100174.20
2019-03-11T11:36:59.719Z,100174.17
2019-03-11T11:39:50.079Z,100169.39
2019-03-11T11:42:40.340Z,100164.00
2019-03-11T11:45:30.990Z,100158.84
2019-03-11T11:48:21.237Z,100141.09
2019-03-11T11:51:11.571Z,100150.03
2019-03-11T11:54:01.819Z,100146.52
2019-03-11T11:56:53.104Z,100143.99
2019-03-11T11:59:53.541Z,100123.23
2019-03-11T12:02:34.790Z,100123.81
2019-03-11T12:05:24.980Z,100116.97
2019-03-11T12:08:15.310Z,100108.47
2019-03-11T12:11:05.877Z,100112.05
2019-03-11T12:13:56.345Z,100117.17
2019-03-11T12:16:46.396Z,100111.65
2019-03-11T12:19:36.630Z,100109.19
2019-03-11T12:22:30.854Z,100107.16
2019-03-11T12:25:21.126Z,100100.78
2019-03-11T12:28:11.049Z,100103.83
2019-03-11T12:31:01.467Z,100095.66
2019-03-11T12:33:51.547Z,100092.53
2019-03-11T12:36:41.926Z,100093.84
2019-03-11T12:39:32.128Z,100092.72
2019-03-11T12:42:22.785Z,100090.06
2019-03-11T12:45:13.690Z,100082.09
2019-03-11T12:48:06.796Z,100082.09
2019-03-11T12:50:57.183Z,100079.56
2019-03-11T12:53:47.647Z,100071.77
2019-03-11T12:56:39.054Z,100079.47
2019-03-11T12:59:29.331Z,100071.88
2019-03-11T13:02:19.610Z,100072.42
2019-03-11T13:05:10.946Z,100060.00
2019-03-11T13:08:01.332Z,100058.02
2019-03-11T13:10:52.000Z,100048.37
2019-03-11T13:13:42.167Z,100037.57
2019-03-11T13:16:32.382Z,100040.30
2019-03-11T13:19:22.386Z,100020.79
2019-03-11T13:22:15.495Z,100020.79
2019-03-11T13:25:05.995Z,100030.20
2019-03-11T13:27:56.239Z,100031.81
2019-03-11T13:30:46.629Z,100024.17
2019-03-11T13:33:37.094Z,100025.20
2019-03-11T13:36:27.061Z,100020.59
2019-03-11T13:39:19.873Z,100019.28
2019-03-11T13:42:10.162Z,100013.00
2019-03-11T13:45:00.550Z,100009.83
2019-03-11T13:47:50.571Z,100007.12
2019-03-11T13:50:40.859Z,99987.95
2019-03-11T13:53:31.065Z,100004.41
2019-03-11T13:56:25.050Z,100001.61
2019-03-11T13:59:20.914Z,100000.86
2019-03-11T14:02:16.274Z,99993.20
2019-03-11T14:05:11.541Z,99990.42
2019-03-11T14:08:04.112Z,99985.47
2019-03-11T14:10:54.391Z,99981.77
2019-03-11T14:13:44.801Z,99984.78
2019-03-11T14:16:35.251Z,99983.99
2019-03-11T14:19:29.874Z,99979.00
2019-03-11T14:22:21.069Z,99972.16
2019-03-11T14:25:11.995Z,99968.01
2019-03-11T14:28:02.448Z,99968.09
2019-03-11T14:30:52.499Z,99963.73
2019-03-11T14:33:42.550Z,99958.98
2019-03-11T14:36:32.954Z,99946.11
2019-03-11T14:39:23.270Z,99945.52
2019-03-11T14:42:13.568Z,99937.95
2019-03-11T14:45:03.653Z,99938.59
2019-03-11T14:47:53.790Z,99926.26
2019-03-11T14:50:44.077Z,99929.97
2019-03-11T14:53:34.900Z,99936.61
2019-03-11T14:56:25.072Z,99931.42
2019-03-11T14:59:15.083Z,99932.46
2019-03-11T15:02:05.309Z,99926.33
2019-03-11T15:04:55.966Z,99929.72
2019-03-11T15:07:45.916Z,99921.20
2019-03-11T15:10:36.309Z,99914.67
2019-03-11T15:13:26.626Z,99910.94
2019-03-11T15:16:17.637Z,99909.63
2019-03-11T15:19:07.959Z,99909.63
2019-03-11T15:21:58.463Z,99909.87
2019-03-11T15:24:49.018Z,99909.87
2019-03-11T15:27:39.364Z,99905.94
2019-03-11T15:30:29.579Z,99911.57
2019-03-11T15:33:22.364Z,99911.57
2019-03-11T15:36:12.381Z,99910.72
2019-03-11T15:39:02.480Z,99910.08
2019-03-11T15:41:54.282Z,99908.69
2019-03-11T15:44:46.108Z,99891.36
2019-03-11T15:47:36.203Z,99889.54
2019-03-11T15:50:27.056Z,99898.15
2019-03-11T15:53:17.083Z,99900.89
2019-03-11T15:56:07.204Z,99903.59
2019-03-11T15:58:57.587Z,99906.81
2019-03-11T16:01:48.123Z,99914.59
2019-03-11T16:04:38.558Z,99918.63
2019-03-11T16:07:30.230Z,99922.35
2019-03-11T16:10:20.265Z,99926.73
2019-03-11T16:13:10.517Z,99931.64
2019-03-11T16:16:00.848Z,99930.10
2019-03-11T16:18:50.919Z,99937.16
2019-03-11T16:21:40.964Z,99938.17
2019-03-11T16:24:32.090Z,99944.56
2019-03-11T16:27:22.346Z,99950.30
2019-03-11T16:30:15.056Z,99950.64
2019-03-11T16:33:05.326Z,99957.69
2019-03-11T16:35:55.631Z,99956.84
2019-03-11T16:38:46.137Z,99960.37
2019-03-11T16:41:36.587Z,99959.02
2019-03-11T16:44:26.807Z,99948.34
2019-03-11T16:47:17.154Z,99933.31
2019-03-11T16:50:09.285Z,99912.03
2019-03-11T16:52:59.514Z,99904.63
2019-03-11T16:55:50.672Z,99904.63
2019-03-11T16:58:40.714Z,99892.14
2019-03-11T17:01:30.892Z,99873.98
2019-03-11T17:04:20.986Z,99900.41
2019-03-11T17:07:11.395Z,99907.87
2019-03-11T17:10:04.364Z,99907.48
2019-03-11T17:12:54.403Z,99917.20
2019-03-11T17:15:45.278Z,99922.60
2019-03-11T17:18:35.637Z,99923.59
2019-03-11T17:21:26.266Z,99926.21
2019-03-11T17:24:16.330Z,99922.98
2019-03-11T17:27:06.864Z,99935.61
2019-03-11T17:29:57.126Z,99934.88
2019-03-11T17:32:47.531Z,99942.34
2019-03-11T17:35:37.924Z,99945.08
2019-03-11T17:38:28.041Z,99930.42
2019-03-11T17:41:18.085Z,99925.36
2019-03-11T17:44:08.407Z,99936.62
2019-03-11T17:47:01.230Z,99931.89
2019-03-11T17:49:51.795Z,99928.58
2019-03-11T17:52:41.921Z,99924.86
2019-03-11T17:55:31.991Z,99914.08
2019-03-11T17:58:22.264Z,99925.88
2019-03-11T18:01:12.750Z,99934.91
2019-03-11T18:04:02.972Z,99932.55
2019-03-11T18:06:53.598Z,99942.34
2019-03-11T18:09:43.638Z,99931.56
2019-03-11T18:12:33.889Z,99934.26
2019-03-11T18:15:24.358Z,99935.28
2019-03-11T18:18:15.239Z,99930.02
2019-03-11T18:21:06.878Z,99923.11
2019-03-11T18:23:57.860Z,99918.41
2019-03-11T18:26:47.857Z,99913.59
2019-03-11T18:29:38.213Z,99914.91
2019-03-11T18:32:28.487Z,99899.38
2019-03-11T18:35:21.097Z,99912.86
2019-03-11T18:38:11.355Z,99904.12
2019-03-11T18:41:01.570Z,99895.99
2019-03-11T18:43:54.203Z,99885.78
2019-03-11T18:46:44.503Z,99875.09
2019-03-11T18:49:34.876Z,99866.02
2019-03-11T18:52:25.070Z,99853.65
2019-03-11T18:55:15.239Z,99857.92
2019-03-11T18:58:05.866Z,99851.59
2019-03-11T19:00:56.147Z,99852.30
2019-03-11T19:03:46.814Z,99855.41
2019-03-11T19:06:37.025Z,99855.63
2019-03-11T19:09:27.271Z,99852.16
2019-03-11T19:12:17.498Z,99856.89
2019-03-11T19:15:10.302Z,99853.87
2019-03-11T19:18:00.360Z,99858.23
2019-03-11T19:20:50.705Z,99855.83
2019-03-11T19:23:40.846Z,99850.68
2019-03-11T19:26:31.177Z,99854.73
2019-03-11T19:29:21.444Z,99848.89
2019-03-11T19:32:12.379Z,99855.62
2019-03-11T19:35:02.953Z,99845.83
2019-03-11T19:37:54.275Z,99835.22
2019-03-11T19:40:44.350Z,99830.31
2019-03-11T19:43:35.108Z,99828.80
2019-03-11T19:46:25.325Z,99826.97
2019-03-11T19:49:15.563Z,99825.53
2019-03-11T19:52:05.743Z,99825.78
2019-03-11T19:54:56.581Z,99824.98
2019-03-11T19:57:46.813Z,99813.73
2019-03-11T20:00:36.880Z,99823.74
2019-03-11T20:03:30.457Z,99820.05
2019-03-11T20:06:18.886Z,99802.87
2019-03-11T20:09:11.496Z,99802.23
2019-03-11T20:12:02.072Z,99791.60
2019-03-11T20:14:53.314Z,99799.53
2019-03-11T20:17:44.011Z,99808.14
2019-03-11T20:20:34.147Z,99803.11
2019-03-11T20:23:24.382Z,99799.71
2019-03-11T20:26:14.709Z,99791.59
2019-03-11T20:29:06.099Z,99786.06
2019-03-11T20:31:56.809Z,99788.44
2019-03-11T20:34:46.963Z,99803.92
2019-03-11T20:37:37.119Z,99793.15
2019-03-11T20:40:27.303Z,99798.88
2019-03-11T20:43:17.593Z,99790.09
2019-03-11T20:46:07.957Z,99791.95
2019-03-11T20:49:02.055Z,99794.94
2019-03-11T20:51:54.449Z,99796.30
2019-03-11T20:54:44.664Z,99792.91
2019-03-11T20:57:35.180Z,99787.19
2019-03-11T21:00:25.287Z,99796.98
2019-03-11T21:03:15.464Z,99792.92
2019-03-11T21:06:06.099Z,99788.98
2019-03-11T21:08:56.384Z,99784.25
2019-03-11T21:11:46.610Z,99788.98
2019-03-11T21:14:37.007Z,99778.52
2019-03-11T21:17:29.406Z,99773.27
2019-03-11T21:20:18.841Z,99772.11
2019-03-11T21:23:09.371Z,99775.30
2019-03-11T21:25:59.746Z,99770.92
2019-03-11T21:28:49.994Z,99773.63
2019-03-11T21:31:40.139Z,99773.48
2019-03-11T21:34:30.531Z,99752.73
2019-03-11T21:37:20.842Z,99741.91
2019-03-11T21:40:12.449Z,99748.34
2019-03-11T21:43:02.970Z,99749.32
2019-03-11T21:45:52.978Z,99756.72
2019-03-11T21:48:43.335Z,99739.37
2019-03-11T21:51:33.533Z,99740.67
2019-03-11T21:54:23.834Z,99735.11
2019-03-11T21:57:14.204Z,99735.80
2019-03-11T22:00:04.368Z,99736.95
2019-03-11T22:02:54.888Z,99723.81
2019-03-11T22:05:44.995Z,99728.69
2019-03-11T22:08:35.272Z,99718.92
2019-03-11T22:11:25.601Z,99722.30
2019-03-11T22:14:15.895Z,99713.20
2019-03-11T22:17:06.322Z,99714.91
2019-03-11T22:19:56.728Z,99710.83
2019-03-11T22:22:46.956Z,99698.56
2019-03-11T22:25:38.427Z,99699.91
2019-03-11T22:28:28.678Z,99693.03
2019-03-11T22:31:18.991Z,99705.14
2019-03-11T22:34:09.199Z,99702.62
2019-03-11T22:36:59.271Z,99706.11
2019-03-11T22:39:49.545Z,99702.08
2019-03-11T22:42:39.778Z,99704.77
2019-03-11T22:45:30.108Z,99709.66
2019-03-11T22:48:21.046Z,99702.70
2019-03-11T22:51:11.282Z,99703.73
2019-03-11T22:54:01.728Z,99703.39
2019-03-11T22:56:53.275Z,99694.32
2019-03-11T22:59:43.683Z,99701.36
2019-03-11T23:02:39.938Z,99707.78
2019-03-11T23:05:25.609Z,99708.48
2019-03-11T23:08:15.646Z,99704.73
2019-03-11T23:11:05.924Z,99715.84
2019-03-11T23:13:56.128Z,99722.26
2019-03-11T23:16:46.139Z,99722.53
2019-03-11T23:19:36.454Z,99729.98
2019-03-11T23:22:26.699Z,99729.63
2019-03-11T23:25:17.059Z,99725.94
2019-03-11T23:28:07.607Z,99710.93
2019-03-11T23:30:57.675Z,99717.50
2019-03-11T23:33:47.954Z,99731.95
2019-03-11T23:36:39.210Z,99733.69
2019-03-11T23:39:29.257Z,99737.55
2019-03-11T23:42:19.587Z,99738.20
2019-03-11T23:45:09.923Z,99742.86
2019-03-11T23:47:59.969Z,99746.61
2019-03-11T23:50:49.982Z,99752.13
2019-03-11T23:53:40.419Z,99734.27
2019-03-11T23:56:30.875Z,99734.30
2019-03-11T23:59:21.229Z,99746.25
